sensor_id;sensor_type;location;lat;lon;timestamp;P1;durP1;ratioP1;P2;durP2;ratioP2
828;SDS011;396;52.558;13.188;2023-07-13T00:02:19;5.23;;;1.50;;
828;SDS011;396;52.558;13.188;2023-07-13T00:04:46;4.57;;;1.20;;
828;SDS011;396;52.558;13.188;2023-07-13T00:07:13;5.60;;;1.97;;
828;SDS011;396;52.558;13.188;2023-07-13T00:09:39;5.10;;;1.30;;
828;SDS011;396;52.558;13.188;2023-07-13T00:12:21;5.17;;;1.67;;
828;SDS011;396;52.558;13.188;2023-07-13T00:14:49;5.80;;;1.33;;
828;SDS011;396;52.558;13.188;2023-07-13T00:17:16;5.77;;;1.63;;
828;SDS011;396;52.558;13.188;2023-07-13T00:19:44;5.20;;;1.70;;
828;SDS011;396;52.558;13.188;2023-07-13T00:22:11;5.50;;;1.20;;
828;SDS011;396;52.558;13.188;2023-07-13T00:24:38;5.67;;;1.67;;
828;SDS011;396;52.558;13.188;2023-07-13T00:27:06;6.47;;;1.70;;
828;SDS011;396;52.558;13.188;2023-07-13T00:29:33;5.37;;;1.60;;
828;SDS011;396;52.558;13.188;2023-07-13T00:32:01;4.97;;;1.50;;
828;SDS011;396;52.558;13.188;2023-07-13T00:34:28;5.17;;;1.50;;
828;SDS011;396;52.558;13.188;2023-07-13T00:36:56;5.77;;;1.80;;
828;SDS011;396;52.558;13.188;2023-07-13T00:39:23;7.50;;;1.60;;
828;SDS011;396;52.558;13.188;2023-07-13T00:41:50;5.80;;;1.63;;
828;SDS011;396;52.558;13.188;2023-07-13T00:44:18;5.40;;;1.70;;
828;SDS011;396;52.558;13.188;2023-07-13T00:46:45;5.57;;;1.73;;
828;SDS011;396;52.558;13.188;2023-07-13T00:49:13;5.20;;;1.50;;
828;SDS011;396;52.558;13.188;2023-07-13T00:51:43;5.97;;;1.90;;
828;SDS011;396;52.558;13.188;2023-07-13T00:54:25;4.97;;;1.27;;
828;SDS011;396;52.558;13.188;2023-07-13T00:56:55;5.70;;;1.50;;
828;SDS011;396;52.558;13.188;2023-07-13T00:59:25;5.23;;;1.50;;
828;SDS011;396;52.558;13.188;2023-07-13T01:01:52;5.00;;;1.30;;
828;SDS011;396;52.558;13.188;2023-07-13T01:04:20;4.90;;;1.23;;
828;SDS011;396;52.558;13.188;2023-07-13T01:06:49;6.10;;;1.80;;
828;SDS011;396;52.558;13.188;2023-07-13T01:09:17;5.07;;;1.63;;
828;SDS011;396;52.558;13.188;2023-07-13T01:11:44;5.63;;;1.47;;
828;SDS011;396;52.558;13.188;2023-07-13T01:14:11;5.03;;;1.30;;
828;SDS011;396;52.558;13.188;2023-07-13T01:16:37;4.70;;;1.30;;
828;SDS011;396;52.558;13.188;2023-07-13T01:19:08;5.03;;;1.47;;
828;SDS011;396;52.558;13.188;2023-07-13T01:21:49;5.07;;;1.17;;
828;SDS011;396;52.558;13.188;2023-07-13T01:24:16;6.00;;;1.87;;
828;SDS011;396;52.558;13.188;2023-07-13T01:26:42;5.00;;;1.20;;
828;SDS011;396;52.558;13.188;2023-07-13T01:29:09;5.43;;;1.50;;
828;SDS011;396;52.558;13.188;2023-07-13T01:31:36;5.63;;;1.83;;
828;SDS011;396;52.558;13.188;2023-07-13T01:34:02;5.77;;;1.50;;
828;SDS011;396;52.558;13.188;2023-07-13T01:36:30;5.93;;;1.70;;
828;SDS011;396;52.558;13.188;2023-07-13T01:38:58;6.63;;;2.17;;
828;SDS011;396;52.558;13.188;2023-07-13T01:41:24;5.13;;;1.63;;
828;SDS011;396;52.558;13.188;2023-07-13T01:43:51;6.00;;;1.50;;
828;SDS011;396;52.558;13.188;2023-07-13T01:46:17;5.07;;;1.60;;
828;SDS011;396;52.558;13.188;2023-07-13T01:48:44;5.27;;;1.60;;
828;SDS011;396;52.558;13.188;2023-07-13T01:51:10;5.43;;;1.53;;
828;SDS011;396;52.558;13.188;2023-07-13T01:53:37;5.60;;;1.60;;
828;SDS011;396;52.558;13.188;2023-07-13T01:56:05;5.80;;;2.17;;
828;SDS011;396;52.558;13.188;2023-07-13T01:58:32;6.10;;;1.70;;
828;SDS011;396;52.558;13.188;2023-07-13T02:00:58;4.80;;;1.13;;
828;SDS011;396;52.558;13.188;2023-07-13T02:03:25;4.60;;;1.23;;
828;SDS011;396;52.558;13.188;2023-07-13T02:05:51;5.93;;;1.57;;
828;SDS011;396;52.558;13.188;2023-07-13T02:08:18;5.80;;;1.80;;
828;SDS011;396;52.558;13.188;2023-07-13T02:10:45;8.10;;;2.07;;
828;SDS011;396;52.558;13.188;2023-07-13T02:13:13;5.30;;;1.60;;
828;SDS011;396;52.558;13.188;2023-07-13T02:15:39;5.10;;;1.60;;
828;SDS011;396;52.558;13.188;2023-07-13T02:18:06;5.40;;;1.30;;
828;SDS011;396;52.558;13.188;2023-07-13T02:20:33;6.23;;;2.20;;
828;SDS011;396;52.558;13.188;2023-07-13T02:23:00;5.07;;;1.40;;
828;SDS011;396;52.558;13.188;2023-07-13T02:25:26;4.73;;;1.30;;
828;SDS011;396;52.558;13.188;2023-07-13T02:27:53;6.00;;;2.03;;
828;SDS011;396;52.558;13.188;2023-07-13T02:30:21;6.47;;;2.10;;
828;SDS011;396;52.558;13.188;2023-07-13T02:32:49;10.57;;;2.00;;
828;SDS011;396;52.558;13.188;2023-07-13T02:35:17;5.47;;;1.63;;
828;SDS011;396;52.558;13.188;2023-07-13T02:37:44;4.80;;;1.43;;
828;SDS011;396;52.558;13.188;2023-07-13T02:40:11;6.03;;;1.67;;
828;SDS011;396;52.558;13.188;2023-07-13T02:42:38;8.47;;;2.00;;
828;SDS011;396;52.558;13.188;2023-07-13T02:45:05;5.40;;;1.60;;
828;SDS011;396;52.558;13.188;2023-07-13T02:47:34;5.57;;;1.70;;
828;SDS011;396;52.558;13.188;2023-07-13T02:50:00;6.27;;;1.80;;
828;SDS011;396;52.558;13.188;2023-07-13T02:52:27;6.37;;;2.03;;
828;SDS011;396;52.558;13.188;2023-07-13T02:54:54;6.20;;;2.03;;
828;SDS011;396;52.558;13.188;2023-07-13T02:57:20;5.90;;;1.97;;
828;SDS011;396;52.558;13.188;2023-07-13T02:59:47;5.17;;;1.73;;
828;SDS011;396;52.558;13.188;2023-07-13T03:02:14;5.47;;;1.70;;
828;SDS011;396;52.558;13.188;2023-07-13T03:04:43;5.83;;;1.30;;
828;SDS011;396;52.558;13.188;2023-07-13T03:07:10;5.37;;;1.57;;
828;SDS011;396;52.558;13.188;2023-07-13T03:09:36;5.40;;;1.60;;
828;SDS011;396;52.558;13.188;2023-07-13T03:12:03;5.40;;;1.57;;
828;SDS011;396;52.558;13.188;2023-07-13T03:14:30;5.10;;;1.47;;
828;SDS011;396;52.558;13.188;2023-07-13T03:16:57;5.03;;;1.57;;
828;SDS011;396;52.558;13.188;2023-07-13T03:19:23;9.17;;;1.97;;
828;SDS011;396;52.558;13.188;2023-07-13T03:21:51;5.67;;;1.80;;
828;SDS011;396;52.558;13.188;2023-07-13T03:24:18;5.10;;;1.57;;
828;SDS011;396;52.558;13.188;2023-07-13T03:26:45;5.90;;;1.90;;
828;SDS011;396;52.558;13.188;2023-07-13T03:29:12;8.37;;;2.10;;
828;SDS011;396;52.558;13.188;2023-07-13T03:31:39;7.17;;;2.00;;
828;SDS011;396;52.558;13.188;2023-07-13T03:34:06;6.10;;;1.83;;
828;SDS011;396;52.558;13.188;2023-07-13T03:36:33;5.80;;;2.17;;
828;SDS011;396;52.558;13.188;2023-07-13T03:39:01;6.10;;;1.97;;
828;SDS011;396;52.558;13.188;2023-07-13T03:41:29;5.13;;;1.60;;
828;SDS011;396;52.558;13.188;2023-07-13T03:43:56;5.33;;;1.57;;
828;SDS011;396;52.558;13.188;2023-07-13T03:46:23;6.10;;;1.90;;
828;SDS011;396;52.558;13.188;2023-07-13T03:48:50;6.17;;;2.10;;
828;SDS011;396;52.558;13.188;2023-07-13T03:51:17;6.20;;;2.10;;
828;SDS011;396;52.558;13.188;2023-07-13T03:53:44;7.10;;;2.33;;
828;SDS011;396;52.558;13.188;2023-07-13T03:56:14;6.00;;;2.20;;
828;SDS011;396;52.558;13.188;2023-07-13T03:58:43;6.90;;;2.50;;
828;SDS011;396;52.558;13.188;2023-07-13T04:01:12;6.13;;;1.70;;
828;SDS011;396;52.558;13.188;2023-07-13T04:03:39;6.23;;;2.20;;
828;SDS011;396;52.558;13.188;2023-07-13T04:06:07;5.50;;;1.77;;
828;SDS011;396;52.558;13.188;2023-07-13T04:08:36;8.30;;;2.10;;
828;SDS011;396;52.558;13.188;2023-07-13T04:11:04;8.00;;;2.10;;
828;SDS011;396;52.558;13.188;2023-07-13T04:13:32;6.43;;;1.93;;
828;SDS011;396;52.558;13.188;2023-07-13T04:15:59;7.20;;;2.47;;
828;SDS011;396;52.558;13.188;2023-07-13T04:18:26;5.30;;;1.50;;
828;SDS011;396;52.558;13.188;2023-07-13T04:20:53;6.80;;;2.17;;
828;SDS011;396;52.558;13.188;2023-07-13T04:23:19;6.13;;;1.90;;
828;SDS011;396;52.558;13.188;2023-07-13T04:25:46;6.00;;;1.73;;
828;SDS011;396;52.558;13.188;2023-07-13T04:28:14;5.30;;;1.63;;
828;SDS011;396;52.558;13.188;2023-07-13T04:30:48;5.70;;;1.60;;
828;SDS011;396;52.558;13.188;2023-07-13T04:33:13;5.47;;;1.53;;
828;SDS011;396;52.558;13.188;2023-07-13T04:35:41;5.87;;;2.10;;
828;SDS011;396;52.558;13.188;2023-07-13T04:38:08;6.23;;;2.00;;
828;SDS011;396;52.558;13.188;2023-07-13T04:40:36;6.63;;;1.83;;
828;SDS011;396;52.558;13.188;2023-07-13T04:43:02;8.77;;;2.30;;
828;SDS011;396;52.558;13.188;2023-07-13T04:45:29;6.10;;;1.90;;
828;SDS011;396;52.558;13.188;2023-07-13T04:47:58;6.53;;;2.47;;
828;SDS011;396;52.558;13.188;2023-07-13T04:50:24;7.50;;;2.30;;
828;SDS011;396;52.558;13.188;2023-07-13T04:52:51;7.03;;;2.23;;
828;SDS011;396;52.558;13.188;2023-07-13T04:55:18;7.20;;;2.20;;
828;SDS011;396;52.558;13.188;2023-07-13T04:57:46;7.53;;;1.93;;
828;SDS011;396;52.558;13.188;2023-07-13T05:00:13;6.20;;;1.77;;
828;SDS011;396;52.558;13.188;2023-07-13T05:02:43;7.20;;;2.23;;
828;SDS011;396;52.558;13.188;2023-07-13T05:05:12;6.07;;;1.60;;
828;SDS011;396;52.558;13.188;2023-07-13T05:07:39;5.60;;;1.60;;
828;SDS011;396;52.558;13.188;2023-07-13T05:10:06;6.10;;;1.40;;
828;SDS011;396;52.558;13.188;2023-07-13T05:12:33;6.37;;;1.80;;
828;SDS011;396;52.558;13.188;2023-07-13T05:15:00;5.80;;;1.60;;
828;SDS011;396;52.558;13.188;2023-07-13T05:17:28;5.33;;;1.40;;
828;SDS011;396;52.558;13.188;2023-07-13T05:19:54;6.00;;;2.10;;
828;SDS011;396;52.558;13.188;2023-07-13T05:22:22;6.27;;;1.80;;
828;SDS011;396;52.558;13.188;2023-07-13T05:24:49;5.90;;;1.70;;
828;SDS011;396;52.558;13.188;2023-07-13T05:27:16;5.80;;;1.97;;
828;SDS011;396;52.558;13.188;2023-07-13T05:29:42;7.03;;;1.97;;
828;SDS011;396;52.558;13.188;2023-07-13T05:32:09;10.93;;;1.90;;
828;SDS011;396;52.558;13.188;2023-07-13T05:34:36;5.60;;;1.40;;
828;SDS011;396;52.558;13.188;2023-07-13T05:37:02;10.70;;;1.63;;
828;SDS011;396;52.558;13.188;2023-07-13T05:39:31;5.50;;;1.90;;
828;SDS011;396;52.558;13.188;2023-07-13T05:41:57;5.40;;;1.40;;
828;SDS011;396;52.558;13.188;2023-07-13T05:44:24;5.10;;;1.43;;
828;SDS011;396;52.558;13.188;2023-07-13T05:46:50;7.00;;;1.60;;
828;SDS011;396;52.558;13.188;2023-07-13T05:49:17;5.87;;;1.77;;
828;SDS011;396;52.558;13.188;2023-07-13T05:51:44;5.90;;;1.70;;
828;SDS011;396;52.558;13.188;2023-07-13T05:54:10;5.10;;;1.50;;
828;SDS011;396;52.558;13.188;2023-07-13T05:56:38;5.57;;;1.57;;
828;SDS011;396;52.558;13.188;2023-07-13T05:59:05;5.60;;;1.63;;
828;SDS011;396;52.558;13.188;2023-07-13T06:01:32;4.93;;;1.10;;
828;SDS011;396;52.558;13.188;2023-07-13T06:03:59;5.70;;;1.47;;
828;SDS011;396;52.558;13.188;2023-07-13T06:06:25;5.83;;;1.30;;
828;SDS011;396;52.558;13.188;2023-07-13T06:08:52;6.00;;;1.40;;
828;SDS011;396;52.558;13.188;2023-07-13T06:11:20;5.13;;;1.50;;
828;SDS011;396;52.558;13.188;2023-07-13T06:13:50;4.83;;;0.80;;
828;SDS011;396;52.558;13.188;2023-07-13T06:16:17;5.67;;;1.60;;
828;SDS011;396;52.558;13.188;2023-07-13T06:18:44;5.33;;;1.00;;
828;SDS011;396;52.558;13.188;2023-07-13T06:21:13;4.77;;;1.30;;
828;SDS011;396;52.558;13.188;2023-07-13T06:23:41;5.20;;;1.37;;
828;SDS011;396;52.558;13.188;2023-07-13T06:26:08;4.90;;;1.10;;
828;SDS011;396;52.558;13.188;2023-07-13T06:28:36;7.60;;;1.30;;
828;SDS011;396;52.558;13.188;2023-07-13T06:31:06;5.17;;;1.10;;
828;SDS011;396;52.558;13.188;2023-07-13T06:33:34;5.67;;;1.30;;
828;SDS011;396;52.558;13.188;2023-07-13T06:36:02;4.90;;;0.90;;
828;SDS011;396;52.558;13.188;2023-07-13T06:38:30;5.47;;;1.37;;
828;SDS011;396;52.558;13.188;2023-07-13T06:40:57;4.60;;;1.10;;
828;SDS011;396;52.558;13.188;2023-07-13T06:43:23;4.90;;;1.20;;
828;SDS011;396;52.558;13.188;2023-07-13T06:45:51;4.73;;;1.00;;
828;SDS011;396;52.558;13.188;2023-07-13T06:48:21;4.43;;;0.87;;
828;SDS011;396;52.558;13.188;2023-07-13T06:50:49;4.37;;;0.97;;
828;SDS011;396;52.558;13.188;2023-07-13T06:53:17;7.63;;;1.47;;
828;SDS011;396;52.558;13.188;2023-07-13T06:55:44;4.80;;;1.00;;
828;SDS011;396;52.558;13.188;2023-07-13T06:58:11;4.70;;;1.00;;
828;SDS011;396;52.558;13.188;2023-07-13T07:00:38;5.30;;;1.00;;
828;SDS011;396;52.558;13.188;2023-07-13T07:03:05;6.80;;;1.40;;
828;SDS011;396;52.558;13.188;2023-07-13T07:05:33;5.37;;;1.27;;
828;SDS011;396;52.558;13.188;2023-07-13T07:08:00;4.90;;;1.17;;
828;SDS011;396;52.558;13.188;2023-07-13T07:10:29;5.50;;;1.30;;
828;SDS011;396;52.558;13.188;2023-07-13T07:12:56;5.07;;;1.17;;
828;SDS011;396;52.558;13.188;2023-07-13T07:15:22;4.70;;;1.20;;
828;SDS011;396;52.558;13.188;2023-07-13T07:17:49;5.33;;;1.40;;
828;SDS011;396;52.558;13.188;2023-07-13T07:20:16;4.90;;;1.10;;
828;SDS011;396;52.558;13.188;2023-07-13T07:22:44;5.33;;;1.30;;
828;SDS011;396;52.558;13.188;2023-07-13T07:25:10;5.17;;;1.17;;
828;SDS011;396;52.558;13.188;2023-07-13T07:27:37;4.50;;;1.17;;
828;SDS011;396;52.558;13.188;2023-07-13T07:30:04;4.63;;;0.93;;
828;SDS011;396;52.558;13.188;2023-07-13T07:32:32;5.07;;;1.07;;
828;SDS011;396;52.558;13.188;2023-07-13T07:34:58;6.80;;;1.40;;
828;SDS011;396;52.558;13.188;2023-07-13T07:37:25;4.70;;;1.10;;
828;SDS011;396;52.558;13.188;2023-07-13T07:39:53;4.73;;;1.00;;
828;SDS011;396;52.558;13.188;2023-07-13T07:42:19;4.63;;;0.90;;
828;SDS011;396;52.558;13.188;2023-07-13T07:44:46;5.60;;;1.33;;
828;SDS011;396;52.558;13.188;2023-07-13T07:47:13;6.50;;;1.43;;
828;SDS011;396;52.558;13.188;2023-07-13T07:49:40;4.87;;;1.27;;
828;SDS011;396;52.558;13.188;2023-07-13T07:52:07;4.93;;;1.13;;
828;SDS011;396;52.558;13.188;2023-07-13T07:54:34;4.57;;;0.97;;
828;SDS011;396;52.558;13.188;2023-07-13T07:57:02;5.40;;;1.40;;
828;SDS011;396;52.558;13.188;2023-07-13T07:59:29;4.90;;;1.30;;
828;SDS011;396;52.558;13.188;2023-07-13T08:01:55;4.60;;;0.97;;
828;SDS011;396;52.558;13.188;2023-07-13T08:04:22;4.70;;;1.13;;
828;SDS011;396;52.558;13.188;2023-07-13T08:06:48;5.80;;;1.20;;
828;SDS011;396;52.558;13.188;2023-07-13T08:09:15;5.73;;;1.03;;
828;SDS011;396;52.558;13.188;2023-07-13T08:11:42;4.17;;;0.70;;
828;SDS011;396;52.558;13.188;2023-07-13T08:14:10;5.17;;;1.10;;
828;SDS011;396;52.558;13.188;2023-07-13T08:16:36;4.30;;;0.90;;
828;SDS011;396;52.558;13.188;2023-07-13T08:19:03;4.70;;;1.00;;
828;SDS011;396;52.558;13.188;2023-07-13T08:21:31;4.50;;;0.87;;
828;SDS011;396;52.558;13.188;2023-07-13T08:23:57;5.47;;;0.97;;
828;SDS011;396;52.558;13.188;2023-07-13T08:26:24;4.20;;;0.80;;
828;SDS011;396;52.558;13.188;2023-07-13T08:28:51;4.30;;;0.97;;
828;SDS011;396;52.558;13.188;2023-07-13T08:31:19;4.27;;;0.70;;
828;SDS011;396;52.558;13.188;2023-07-13T08:33:45;4.60;;;1.00;;
828;SDS011;396;52.558;13.188;2023-07-13T08:36:12;4.80;;;0.90;;
828;SDS011;396;52.558;13.188;2023-07-13T08:38:38;4.97;;;1.17;;
828;SDS011;396;52.558;13.188;2023-07-13T08:41:10;4.67;;;0.80;;
828;SDS011;396;52.558;13.188;2023-07-13T08:43:38;4.30;;;0.80;;
828;SDS011;396;52.558;13.188;2023-07-13T08:46:08;5.03;;;0.77;;
828;SDS011;396;52.558;13.188;2023-07-13T08:48:41;4.27;;;0.67;;
828;SDS011;396;52.558;13.188;2023-07-13T08:51:15;4.20;;;0.80;;
828;SDS011;396;52.558;13.188;2023-07-13T08:53:52;4.20;;;0.80;;
828;SDS011;396;52.558;13.188;2023-07-13T08:56:25;4.30;;;0.70;;
828;SDS011;396;52.558;13.188;2023-07-13T08:58:55;4.37;;;0.77;;
828;SDS011;396;52.558;13.188;2023-07-13T09:01:24;4.23;;;0.70;;
828;SDS011;396;52.558;13.188;2023-07-13T09:04:01;4.50;;;0.73;;
828;SDS011;396;52.558;13.188;2023-07-13T09:06:34;4.27;;;0.70;;
828;SDS011;396;52.558;13.188;2023-07-13T09:09:13;5.00;;;1.20;;
828;SDS011;396;52.558;13.188;2023-07-13T09:11:49;5.20;;;1.07;;
828;SDS011;396;52.558;13.188;2023-07-13T09:14:26;4.60;;;0.90;;
828;SDS011;396;52.558;13.188;2023-07-13T09:17:01;4.47;;;0.80;;
828;SDS011;396;52.558;13.188;2023-07-13T09:19:32;4.30;;;0.90;;
828;SDS011;396;52.558;13.188;2023-07-13T09:22:01;4.90;;;1.17;;
828;SDS011;396;52.558;13.188;2023-07-13T09:24:35;4.40;;;0.87;;
828;SDS011;396;52.558;13.188;2023-07-13T09:27:05;5.33;;;0.80;;
828;SDS011;396;52.558;13.188;2023-07-13T09:29:42;4.70;;;0.90;;
828;SDS011;396;52.558;13.188;2023-07-13T09:32:13;4.47;;;0.90;;
828;SDS011;396;52.558;13.188;2023-07-13T09:34:50;5.03;;;1.10;;
828;SDS011;396;52.558;13.188;2023-07-13T09:37:18;4.90;;;1.10;;
828;SDS011;396;52.558;13.188;2023-07-13T09:39:47;4.40;;;0.90;;
828;SDS011;396;52.558;13.188;2023-07-13T09:42:16;5.00;;;1.30;;
828;SDS011;396;52.558;13.188;2023-07-13T09:44:50;5.10;;;1.50;;
828;SDS011;396;52.558;13.188;2023-07-13T09:47:19;8.83;;;1.97;;
828;SDS011;396;52.558;13.188;2023-07-13T09:49:48;4.90;;;1.40;;
828;SDS011;396;52.558;13.188;2023-07-13T09:52:23;6.07;;;1.80;;
828;SDS011;396;52.558;13.188;2023-07-13T09:54:51;5.27;;;1.70;;
828;SDS011;396;52.558;13.188;2023-07-13T09:57:23;6.53;;;1.53;;
828;SDS011;396;52.558;13.188;2023-07-13T09:59:53;4.57;;;1.37;;
828;SDS011;396;52.558;13.188;2023-07-13T10:02:25;5.60;;;1.37;;
828;SDS011;396;52.558;13.188;2023-07-13T10:04:59;5.33;;;1.30;;
828;SDS011;396;52.558;13.188;2023-07-13T10:07:28;6.57;;;1.43;;
828;SDS011;396;52.558;13.188;2023-07-13T10:09:55;6.23;;;2.03;;
828;SDS011;396;52.558;13.188;2023-07-13T10:12:23;4.50;;;1.10;;
828;SDS011;396;52.558;13.188;2023-07-13T10:14:51;5.60;;;1.30;;
828;SDS011;396;52.558;13.188;2023-07-13T10:17:26;5.03;;;1.10;;
828;SDS011;396;52.558;13.188;2023-07-13T10:19:58;6.30;;;0.90;;
828;SDS011;396;52.558;13.188;2023-07-13T10:22:31;5.37;;;1.20;;
828;SDS011;396;52.558;13.188;2023-07-13T10:25:11;5.73;;;1.30;;
828;SDS011;396;52.558;13.188;2023-07-13T10:27:42;4.67;;;0.93;;
828;SDS011;396;52.558;13.188;2023-07-13T10:30:11;4.70;;;1.20;;
828;SDS011;396;52.558;13.188;2023-07-13T10:32:41;5.33;;;1.17;;
828;SDS011;396;52.558;13.188;2023-07-13T10:35:10;5.33;;;1.40;;
828;SDS011;396;52.558;13.188;2023-07-13T10:37:42;5.03;;;1.30;;
828;SDS011;396;52.558;13.188;2023-07-13T10:40:14;5.03;;;1.60;;
828;SDS011;396;52.558;13.188;2023-07-13T10:42:46;4.83;;;1.10;;
828;SDS011;396;52.558;13.188;2023-07-13T10:45:16;5.20;;;1.20;;
828;SDS011;396;52.558;13.188;2023-07-13T10:47:45;4.90;;;1.30;;
828;SDS011;396;52.558;13.188;2023-07-13T10:50:15;5.60;;;1.47;;
828;SDS011;396;52.558;13.188;2023-07-13T10:52:46;5.40;;;1.30;;
828;SDS011;396;52.558;13.188;2023-07-13T10:55:34;4.77;;;1.10;;
828;SDS011;396;52.558;13.188;2023-07-13T10:58:11;5.03;;;1.20;;
828;SDS011;396;52.558;13.188;2023-07-13T11:00:49;7.30;;;1.27;;
828;SDS011;396;52.558;13.188;2023-07-13T11:03:17;4.40;;;0.90;;
828;SDS011;396;52.558;13.188;2023-07-13T11:05:49;4.90;;;1.50;;
828;SDS011;396;52.558;13.188;2023-07-13T11:08:23;5.33;;;1.43;;
828;SDS011;396;52.558;13.188;2023-07-13T11:11:01;5.73;;;1.30;;
828;SDS011;396;52.558;13.188;2023-07-13T11:16:34;5.43;;;1.37;;
828;SDS011;396;52.558;13.188;2023-07-13T11:19:23;4.50;;;1.20;;
828;SDS011;396;52.558;13.188;2023-07-13T11:22:10;4.70;;;1.20;;
828;SDS011;396;52.558;13.188;2023-07-13T11:24:48;4.80;;;1.10;;
828;SDS011;396;52.558;13.188;2023-07-13T11:27:25;4.63;;;1.17;;
828;SDS011;396;52.558;13.188;2023-07-13T11:30:22;4.70;;;1.13;;
828;SDS011;396;52.558;13.188;2023-07-13T11:32:52;6.07;;;1.47;;
828;SDS011;396;52.558;13.188;2023-07-13T11:35:31;4.60;;;1.30;;
828;SDS011;396;52.558;13.188;2023-07-13T11:38:02;5.30;;;1.10;;
828;SDS011;396;52.558;13.188;2023-07-13T11:40:34;4.63;;;1.13;;
828;SDS011;396;52.558;13.188;2023-07-13T11:43:01;6.20;;;1.70;;
828;SDS011;396;52.558;13.188;2023-07-13T11:45:28;4.80;;;0.80;;
828;SDS011;396;52.558;13.188;2023-07-13T11:47:55;4.50;;;1.10;;
828;SDS011;396;52.558;13.188;2023-07-13T11:50:25;5.20;;;1.37;;
828;SDS011;396;52.558;13.188;2023-07-13T11:52:52;5.67;;;1.50;;
828;SDS011;396;52.558;13.188;2023-07-13T11:55:22;4.60;;;1.00;;
828;SDS011;396;52.558;13.188;2023-07-13T11:57:51;5.20;;;1.50;;
828;SDS011;396;52.558;13.188;2023-07-13T12:00:23;4.43;;;1.00;;
828;SDS011;396;52.558;13.188;2023-07-13T12:02:54;4.77;;;1.30;;
828;SDS011;396;52.558;13.188;2023-07-13T12:05:24;5.43;;;1.07;;
828;SDS011;396;52.558;13.188;2023-07-13T12:07:51;5.03;;;1.10;;
828;SDS011;396;52.558;13.188;2023-07-13T12:10:20;6.20;;;1.60;;
828;SDS011;396;52.558;13.188;2023-07-13T12:12:52;5.50;;;1.03;;
828;SDS011;396;52.558;13.188;2023-07-13T12:15:20;4.17;;;0.70;;
828;SDS011;396;52.558;13.188;2023-07-13T12:17:48;4.60;;;1.00;;
828;SDS011;396;52.558;13.188;2023-07-13T12:20:18;4.80;;;1.00;;
828;SDS011;396;52.558;13.188;2023-07-13T12:22:48;4.43;;;0.97;;
828;SDS011;396;52.558;13.188;2023-07-13T12:25:16;4.10;;;0.83;;
828;SDS011;396;52.558;13.188;2023-07-13T12:27:47;4.20;;;0.93;;
828;SDS011;396;52.558;13.188;2023-07-13T12:30:26;6.50;;;1.20;;
828;SDS011;396;52.558;13.188;2023-07-13T12:32:56;4.60;;;0.90;;
828;SDS011;396;52.558;13.188;2023-07-13T12:35:24;4.90;;;1.20;;
828;SDS011;396;52.558;13.188;2023-07-13T12:37:54;4.70;;;1.20;;
828;SDS011;396;52.558;13.188;2023-07-13T12:40:26;6.10;;;1.00;;
828;SDS011;396;52.558;13.188;2023-07-13T12:42:56;4.77;;;1.10;;
828;SDS011;396;52.558;13.188;2023-07-13T12:45:23;5.50;;;1.20;;
828;SDS011;396;52.558;13.188;2023-07-13T12:47:53;4.80;;;1.20;;
828;SDS011;396;52.558;13.188;2023-07-13T12:50:22;5.70;;;1.10;;
828;SDS011;396;52.558;13.188;2023-07-13T12:52:50;5.10;;;1.17;;
828;SDS011;396;52.558;13.188;2023-07-13T12:55:19;4.20;;;0.80;;
828;SDS011;396;52.558;13.188;2023-07-13T12:57:49;4.53;;;1.00;;
828;SDS011;396;52.558;13.188;2023-07-13T13:00:25;4.40;;;0.90;;
828;SDS011;396;52.558;13.188;2023-07-13T13:02:57;4.30;;;1.07;;
828;SDS011;396;52.558;13.188;2023-07-13T13:05:28;6.20;;;1.60;;
828;SDS011;396;52.558;13.188;2023-07-13T13:07:56;4.77;;;0.93;;
828;SDS011;396;52.558;13.188;2023-07-13T13:10:23;4.37;;;0.90;;
828;SDS011;396;52.558;13.188;2023-07-13T13:12:51;4.20;;;0.90;;
828;SDS011;396;52.558;13.188;2023-07-13T13:15:18;4.53;;;1.10;;
828;SDS011;396;52.558;13.188;2023-07-13T13:17:47;4.40;;;1.03;;
828;SDS011;396;52.558;13.188;2023-07-13T13:20:14;4.67;;;1.20;;
828;SDS011;396;52.558;13.188;2023-07-13T13:22:42;4.30;;;0.90;;
828;SDS011;396;52.558;13.188;2023-07-13T13:25:09;4.53;;;1.07;;
828;SDS011;396;52.558;13.188;2023-07-13T13:27:36;4.60;;;1.23;;
828;SDS011;396;52.558;13.188;2023-07-13T13:30:08;10.00;;;1.17;;
828;SDS011;396;52.558;13.188;2023-07-13T13:32:38;7.50;;;1.20;;
828;SDS011;396;52.558;13.188;2023-07-13T13:35:08;4.07;;;0.80;;
828;SDS011;396;52.558;13.188;2023-07-13T13:37:38;5.27;;;1.27;;
828;SDS011;396;52.558;13.188;2023-07-13T13:40:13;5.10;;;1.40;;
828;SDS011;396;52.558;13.188;2023-07-13T13:42:40;4.93;;;1.20;;
828;SDS011;396;52.558;13.188;2023-07-13T13:45:07;4.50;;;1.20;;
828;SDS011;396;52.558;13.188;2023-07-13T13:47:35;4.10;;;0.77;;
828;SDS011;396;52.558;13.188;2023-07-13T13:50:05;4.80;;;1.00;;
828;SDS011;396;52.558;13.188;2023-07-13T13:52:41;4.10;;;0.80;;
828;SDS011;396;52.558;13.188;2023-07-13T13:55:11;5.77;;;1.17;;
828;SDS011;396;52.558;13.188;2023-07-13T13:57:39;8.03;;;1.37;;
828;SDS011;396;52.558;13.188;2023-07-13T14:00:06;4.87;;;1.10;;
828;SDS011;396;52.558;13.188;2023-07-13T14:02:36;4.10;;;0.70;;
828;SDS011;396;52.558;13.188;2023-07-13T14:05:04;4.57;;;1.03;;
828;SDS011;396;52.558;13.188;2023-07-13T14:07:34;6.33;;;1.30;;
828;SDS011;396;52.558;13.188;2023-07-13T14:10:01;4.30;;;0.70;;
828;SDS011;396;52.558;13.188;2023-07-13T14:12:28;4.00;;;0.67;;
828;SDS011;396;52.558;13.188;2023-07-13T14:14:55;4.70;;;1.20;;
828;SDS011;396;52.558;13.188;2023-07-13T14:17:24;4.37;;;1.00;;
828;SDS011;396;52.558;13.188;2023-07-13T14:19:53;5.00;;;0.70;;
828;SDS011;396;52.558;13.188;2023-07-13T14:22:22;4.73;;;1.10;;
828;SDS011;396;52.558;13.188;2023-07-13T14:24:50;4.70;;;1.20;;
828;SDS011;396;52.558;13.188;2023-07-13T14:27:18;4.40;;;0.90;;
828;SDS011;396;52.558;13.188;2023-07-13T14:29:45;4.83;;;1.10;;
828;SDS011;396;52.558;13.188;2023-07-13T14:32:11;4.33;;;0.83;;
828;SDS011;396;52.558;13.188;2023-07-13T14:34:39;4.10;;;0.70;;
828;SDS011;396;52.558;13.188;2023-07-13T14:37:08;4.50;;;0.90;;
828;SDS011;396;52.558;13.188;2023-07-13T14:39:39;4.20;;;0.83;;
828;SDS011;396;52.558;13.188;2023-07-13T14:42:10;4.60;;;0.90;;
828;SDS011;396;52.558;13.188;2023-07-13T14:44:37;4.30;;;0.87;;
828;SDS011;396;52.558;13.188;2023-07-13T14:47:04;4.20;;;0.80;;
828;SDS011;396;52.558;13.188;2023-07-13T14:49:33;4.57;;;0.83;;
828;SDS011;396;52.558;13.188;2023-07-13T14:52:03;4.20;;;0.80;;
828;SDS011;396;52.558;13.188;2023-07-13T14:54:37;4.20;;;0.70;;
828;SDS011;396;52.558;13.188;2023-07-13T14:57:08;4.30;;;0.77;;
828;SDS011;396;52.558;13.188;2023-07-13T14:59:37;5.83;;;0.80;;
828;SDS011;396;52.558;13.188;2023-07-13T15:02:09;4.40;;;0.73;;
828;SDS011;396;52.558;13.188;2023-07-13T15:04:43;4.20;;;0.77;;
828;SDS011;396;52.558;13.188;2023-07-13T15:07:11;4.10;;;0.60;;
828;SDS011;396;52.558;13.188;2023-07-13T15:09:38;5.70;;;0.87;;
828;SDS011;396;52.558;13.188;2023-07-13T15:12:05;4.00;;;0.63;;
828;SDS011;396;52.558;13.188;2023-07-13T15:14:34;4.23;;;0.70;;
828;SDS011;396;52.558;13.188;2023-07-13T15:17:00;4.40;;;0.90;;
828;SDS011;396;52.558;13.188;2023-07-13T15:19:27;4.83;;;0.80;;
828;SDS011;396;52.558;13.188;2023-07-13T15:21:55;4.77;;;0.77;;
828;SDS011;396;52.558;13.188;2023-07-13T15:24:23;4.10;;;0.60;;
828;SDS011;396;52.558;13.188;2023-07-13T15:26:50;4.20;;;0.63;;
828;SDS011;396;52.558;13.188;2023-07-13T15:29:17;4.67;;;0.97;;
828;SDS011;396;52.558;13.188;2023-07-13T15:31:45;4.27;;;0.80;;
828;SDS011;396;52.558;13.188;2023-07-13T15:34:13;4.77;;;0.90;;
828;SDS011;396;52.558;13.188;2023-07-13T15:36:45;4.93;;;0.80;;
828;SDS011;396;52.558;13.188;2023-07-13T15:39:13;4.40;;;0.70;;
828;SDS011;396;52.558;13.188;2023-07-13T15:41:41;4.10;;;0.70;;
828;SDS011;396;52.558;13.188;2023-07-13T15:44:21;4.10;;;0.70;;